createdAt,value
2023-03-23T15:57:52.623Z,6.45
2023-03-23T16:00:21.154Z,6.07
2023-03-23T16:02:53.225Z,8.80
2023-03-23T16:05:22.394Z,7.60
2023-03-23T16:07:50.307Z,6.60
2023-03-23T16:10:19.800Z,10.13
2023-03-23T16:12:46.976Z,12.60
2023-03-23T16:15:14.543Z,29.92
2023-03-23T16:17:41.758Z,15.20
2023-03-23T16:20:17.837Z,36.55
2023-03-23T16:22:44.530Z,20.70
2023-03-23T16:25:11.621Z,13.90
2023-03-23T16:27:40.073Z,14.15
2023-03-23T16:30:22.631Z,23.98
2023-03-23T16:32:49.418Z,20.73
2023-03-23T16:35:16.787Z,22.70
2023-03-23T16:37:48.449Z,19.23
2023-03-23T16:40:16.848Z,20.38
2023-03-23T16:42:43.925Z,15.10
2023-03-23T16:45:13.172Z,15.45
2023-03-23T16:47:40.708Z,17.10
2023-03-23T16:50:11.800Z,17.63
2023-03-23T16:52:46.178Z,16.55
2023-03-23T16:55:15.861Z,21.13
2023-03-23T16:57:43.481Z,16.70
2023-03-23T17:00:15.713Z,16.70
2023-03-23T17:02:43.618Z,24.92
2023-03-23T17:05:11.456Z,21.45
2023-03-23T17:07:42.410Z,26.92
2023-03-23T17:10:11.114Z,31.60
2023-03-23T17:12:37.806Z,21.08
2023-03-23T17:15:05.491Z,20.08
2023-03-23T17:17:32.598Z,14.13
2023-03-23T17:20:01.167Z,27.05
2023-03-23T17:22:29.209Z,20.42
2023-03-23T17:24:57.496Z,18.55
2023-03-23T17:27:25.128Z,41.83
2023-03-23T17:29:52.386Z,38.63
2023-03-23T17:32:20.782Z,22.58
2023-03-23T17:34:47.486Z,17.42
2023-03-23T17:37:14.274Z,16.33
2023-03-23T17:39:43.136Z,15.55
2023-03-23T17:42:10.884Z,24.00
2023-03-23T17:44:37.696Z,17.80
2023-03-23T17:47:04.625Z,26.10
2023-03-23T17:49:31.737Z,22.85
2023-03-23T17:51:59.529Z,25.00
2023-03-23T17:54:26.542Z,18.17
2023-03-23T17:56:53.766Z,16.48
2023-03-23T17:59:23.400Z,18.63
2023-03-23T18:01:50.502Z,18.63
2023-03-23T18:04:17.287Z,21.45
2023-03-23T18:06:44.100Z,46.67
2023-03-23T18:09:11.077Z,61.17
2023-03-23T18:11:37.817Z,46.40
2023-03-23T18:14:05.097Z,39.20
2023-03-23T18:16:31.908Z,34.03
2023-03-23T18:18:58.727Z,35.05
2023-03-23T18:21:27.139Z,34.65
2023-03-23T18:23:59.571Z,32.53
2023-03-23T18:26:27.777Z,36.80
2023-03-23T18:28:54.619Z,43.15
2023-03-23T18:31:21.884Z,43.08
2023-03-23T18:33:51.339Z,42.55
2023-03-23T18:36:21.241Z,42.78
2023-03-23T18:38:48.830Z,31.90
2023-03-23T18:41:17.367Z,37.28
2023-03-23T18:43:44.539Z,38.78
2023-03-23T18:46:11.247Z,42.88
2023-03-23T18:48:37.979Z,39.50
2023-03-23T18:51:05.195Z,38.80
2023-03-23T18:53:32.271Z,24.85
2023-03-23T18:56:11.236Z,33.90
2023-03-23T18:58:38.484Z,26.55
2023-03-23T19:01:12.382Z,21.23
2023-03-23T19:03:40.527Z,31.25
2023-03-23T19:06:15.481Z,23.85
2023-03-23T19:08:45.330Z,35.90
2023-03-23T19:11:13.162Z,38.35
2023-03-23T19:13:47.123Z,40.38
2023-03-23T19:16:21.105Z,41.78
2023-03-23T19:18:47.885Z,40.92
2023-03-23T19:21:17.567Z,34.40
2023-03-23T19:23:47.252Z,31.10
2023-03-23T19:26:23.377Z,24.45
2023-03-23T19:31:22.734Z,21.02
2023-03-23T19:33:49.582Z,20.75
2023-03-23T19:36:16.997Z,23.48
2023-03-23T19:38:44.057Z,28.45
2023-03-23T19:41:11.180Z,28.20
2023-03-23T19:43:38.075Z,32.97
2023-03-23T19:46:05.180Z,35.22
2023-03-23T19:48:31.993Z,31.52
2023-03-23T19:50:58.902Z,20.02
2023-03-23T19:53:26.727Z,23.15
2023-03-23T19:55:53.768Z,30.80
2023-03-23T19:58:21.223Z,30.88
2023-03-23T20:00:48.626Z,25.60
2023-03-23T20:03:17.308Z,22.08
2023-03-23T20:05:45.250Z,21.35
2023-03-23T20:08:12.712Z,22.63
2023-03-23T20:10:41.124Z,23.92
2023-03-23T20:13:08.296Z,24.27
2023-03-23T20:15:34.989Z,25.13
2023-03-23T20:18:02.090Z,24.77
2023-03-23T20:20:36.652Z,26.25
2023-03-23T20:23:04.688Z,27.65
2023-03-23T20:25:31.478Z,23.25
2023-03-23T20:27:58.281Z,32.17
2023-03-23T20:30:25.736Z,27.42
2023-03-23T20:32:53.721Z,23.27
2023-03-23T20:35:22.517Z,19.13
2023-03-23T20:37:50.712Z,18.08
2023-03-23T20:40:18.715Z,19.50
2023-03-23T20:42:45.553Z,21.23
2023-03-23T20:45:13.384Z,19.30
2023-03-23T20:47:41.364Z,20.77
2023-03-23T20:50:10.154Z,16.63
2023-03-23T20:52:37.228Z,14.63
2023-03-23T20:55:04.649Z,15.43
2023-03-23T20:57:31.329Z,15.65
2023-03-23T20:59:58.305Z,14.23
2023-03-23T21:02:29.878Z,15.65
2023-03-23T21:04:58.265Z,18.30
2023-03-23T21:07:27.462Z,18.33
2023-03-23T21:09:56.240Z,19.27
2023-03-23T21:12:22.960Z,23.00
2023-03-23T21:14:49.738Z,24.15
2023-03-23T21:17:16.435Z,24.73
2023-03-23T21:19:43.430Z,22.67
2023-03-23T21:22:14.667Z,15.30
2023-03-23T21:24:41.379Z,15.52
2023-03-23T21:27:08.246Z,15.80
2023-03-23T21:29:34.883Z,11.68
2023-03-23T21:32:08.098Z,16.20
2023-03-23T21:34:36.813Z,16.73
2023-03-23T21:37:03.738Z,15.20
2023-03-23T21:39:30.429Z,14.70
2023-03-23T21:41:59.597Z,18.60
2023-03-23T21:44:26.451Z,16.70
2023-03-23T21:46:54.611Z,15.85
2023-03-23T21:49:21.821Z,15.80
2023-03-23T21:51:49.567Z,14.77
2023-03-23T21:54:16.352Z,16.75
2023-03-23T21:56:43.257Z,14.82
2023-03-23T21:59:09.972Z,20.17
2023-03-23T22:01:37.330Z,17.75
2023-03-23T22:04:05.429Z,14.93
2023-03-23T22:06:34.553Z,14.60
2023-03-23T22:09:05.317Z,22.55
2023-03-23T22:11:32.944Z,25.23
2023-03-23T22:14:00.871Z,18.13
2023-03-23T22:16:28.139Z,20.15
2023-03-23T22:18:56.949Z,20.35
2023-03-23T22:21:26.434Z,17.17
2023-03-23T22:23:55.422Z,16.33
2023-03-23T22:26:22.601Z,13.38
2023-03-23T22:28:51.044Z,13.85
2023-03-23T22:31:23.730Z,16.65
2023-03-23T22:33:56.114Z,15.45
2023-03-23T22:36:28.289Z,13.52
2023-03-23T22:38:56.483Z,19.20
2023-03-23T22:41:26.227Z,16.80
2023-03-23T22:43:53.317Z,15.55
2023-03-23T22:46:21.063Z,20.00
2023-03-23T22:48:48.127Z,16.40
2023-03-23T22:51:16.979Z,14.17
2023-03-23T22:53:44.296Z,13.00
2023-03-23T22:56:11.758Z,13.73
2023-03-23T22:58:38.892Z,14.48
2023-03-23T23:01:09.216Z,12.93
2023-03-23T23:03:36.930Z,12.43
2023-03-23T23:06:04.393Z,14.02
2023-03-23T23:08:32.994Z,15.73
2023-03-23T23:11:02.131Z,18.70
2023-03-23T23:13:31.218Z,12.73
2023-03-23T23:16:01.666Z,12.93
2023-03-23T23:18:30.499Z,13.13
2023-03-23T23:20:59.811Z,11.82
2023-03-23T23:23:27.949Z,10.83
2023-03-23T23:25:54.918Z,13.53
2023-03-23T23:28:22.958Z,14.13
2023-03-23T23:30:50.965Z,16.92
2023-03-23T23:33:18.855Z,18.17
2023-03-23T23:35:46.414Z,21.27
2023-03-23T23:38:13.602Z,18.33
2023-03-23T23:40:44.414Z,16.25
2023-03-23T23:43:13.273Z,17.97
2023-03-23T23:45:40.922Z,14.47
2023-03-23T23:48:08.447Z,14.23
2023-03-23T23:50:35.486Z,14.13
2023-03-23T23:53:02.228Z,14.60
2023-03-23T23:55:28.937Z,13.50
2023-03-23T23:57:56.177Z,15.23
